sensor_id;sensor_type;location;lat;lon;timestamp;P1;durP1;ratioP1;P2;durP2;ratioP2
22660;SDS011;11497;52.222;21.246;2023-04-24T00:01:31;15.90;;;9.43;;
22660;SDS011;11497;52.222;21.246;2023-04-24T00:04:01;18.42;;;10.10;;
22660;SDS011;11497;52.222;21.246;2023-04-24T00:06:30;17.27;;;10.70;;
22660;SDS011;11497;52.222;21.246;2023-04-24T00:09:01;14.70;;;10.27;;
22660;SDS011;11497;52.222;21.246;2023-04-24T00:11:30;14.15;;;10.20;;
22660;SDS011;11497;52.222;21.246;2023-04-24T00:13:57;15.35;;;10.18;;
22660;SDS011;11497;52.222;21.246;2023-04-24T00:16:25;14.45;;;10.15;;
22660;SDS011;11497;52.222;21.246;2023-04-24T00:18:54;15.32;;;10.20;;
22660;SDS011;11497;52.222;21.246;2023-04-24T00:21:21;16.70;;;10.50;;
22660;SDS011;11497;52.222;21.246;2023-04-24T00:23:52;14.27;;;9.85;;
22660;SDS011;11497;52.222;21.246;2023-04-24T00:26:20;16.08;;;9.90;;
22660;SDS011;11497;52.222;21.246;2023-04-24T00:28:48;15.20;;;10.48;;
22660;SDS011;11497;52.222;21.246;2023-04-24T00:31:16;15.52;;;10.82;;
22660;SDS011;11497;52.222;21.246;2023-04-24T00:33:44;17.17;;;10.18;;
22660;SDS011;11497;52.222;21.246;2023-04-24T00:36:11;16.27;;;10.10;;
22660;SDS011;11497;52.222;21.246;2023-04-24T00:38:40;20.17;;;10.73;;
22660;SDS011;11497;52.222;21.246;2023-04-24T00:41:08;16.27;;;10.52;;
22660;SDS011;11497;52.222;21.246;2023-04-24T00:43:36;17.92;;;10.93;;
22660;SDS011;11497;52.222;21.246;2023-04-24T00:46:04;16.70;;;11.02;;
22660;SDS011;11497;52.222;21.246;2023-04-24T00:48:32;15.63;;;10.32;;
22660;SDS011;11497;52.222;21.246;2023-04-24T00:51:01;20.52;;;10.55;;
22660;SDS011;11497;52.222;21.246;2023-04-24T00:53:30;17.63;;;10.20;;
22660;SDS011;11497;52.222;21.246;2023-04-24T00:55:57;18.67;;;10.90;;
22660;SDS011;11497;52.222;21.246;2023-04-24T00:58:26;16.77;;;10.23;;
22660;SDS011;11497;52.222;21.246;2023-04-24T01:00:55;17.83;;;10.63;;
22660;SDS011;11497;52.222;21.246;2023-04-24T01:03:24;17.15;;;10.85;;
22660;SDS011;11497;52.222;21.246;2023-04-24T01:05:55;14.32;;;10.45;;
22660;SDS011;11497;52.222;21.246;2023-04-24T01:08:24;16.35;;;10.95;;
22660;SDS011;11497;52.222;21.246;2023-04-24T01:10:53;16.30;;;10.50;;
22660;SDS011;11497;52.222;21.246;2023-04-24T01:13:21;17.83;;;10.77;;
22660;SDS011;11497;52.222;21.246;2023-04-24T01:15:49;14.73;;;9.77;;
22660;SDS011;11497;52.222;21.246;2023-04-24T01:18:18;16.15;;;10.55;;
22660;SDS011;11497;52.222;21.246;2023-04-24T01:20:50;13.80;;;10.20;;
22660;SDS011;11497;52.222;21.246;2023-04-24T01:23:20;17.02;;;10.07;;
22660;SDS011;11497;52.222;21.246;2023-04-24T01:25:50;20.98;;;10.75;;
22660;SDS011;11497;52.222;21.246;2023-04-24T01:28:19;15.93;;;10.70;;
22660;SDS011;11497;52.222;21.246;2023-04-24T01:30:47;18.10;;;10.30;;
22660;SDS011;11497;52.222;21.246;2023-04-24T01:33:15;16.90;;;10.90;;
22660;SDS011;11497;52.222;21.246;2023-04-24T01:35:44;15.00;;;10.35;;
22660;SDS011;11497;52.222;21.246;2023-04-24T01:38:12;17.25;;;10.80;;
22660;SDS011;11497;52.222;21.246;2023-04-24T01:40:40;17.67;;;11.13;;
22660;SDS011;11497;52.222;21.246;2023-04-24T01:43:08;17.45;;;10.15;;
22660;SDS011;11497;52.222;21.246;2023-04-24T01:45:36;14.50;;;10.77;;
22660;SDS011;11497;52.222;21.246;2023-04-24T01:48:04;14.02;;;10.18;;
22660;SDS011;11497;52.222;21.246;2023-04-24T01:50:32;18.23;;;10.52;;
22660;SDS011;11497;52.222;21.246;2023-04-24T01:53:00;20.13;;;10.77;;
22660;SDS011;11497;52.222;21.246;2023-04-24T01:55:28;16.58;;;11.70;;
22660;SDS011;11497;52.222;21.246;2023-04-24T01:57:56;17.67;;;11.55;;
22660;SDS011;11497;52.222;21.246;2023-04-24T02:00:26;13.90;;;10.50;;
22660;SDS011;11497;52.222;21.246;2023-04-24T02:02:54;15.77;;;10.57;;
22660;SDS011;11497;52.222;21.246;2023-04-24T02:05:22;15.85;;;10.90;;
22660;SDS011;11497;52.222;21.246;2023-04-24T02:07:50;17.65;;;11.23;;
22660;SDS011;11497;52.222;21.246;2023-04-24T02:10:18;19.13;;;10.55;;
22660;SDS011;11497;52.222;21.246;2023-04-24T02:12:46;16.95;;;11.15;;
22660;SDS011;11497;52.222;21.246;2023-04-24T02:15:14;16.83;;;10.95;;
22660;SDS011;11497;52.222;21.246;2023-04-24T02:17:42;18.27;;;11.13;;
22660;SDS011;11497;52.222;21.246;2023-04-24T02:20:10;18.88;;;11.63;;
22660;SDS011;11497;52.222;21.246;2023-04-24T02:22:38;15.25;;;9.80;;
22660;SDS011;11497;52.222;21.246;2023-04-24T02:25:06;16.13;;;11.00;;
22660;SDS011;11497;52.222;21.246;2023-04-24T02:27:34;18.40;;;11.88;;
22660;SDS011;11497;52.222;21.246;2023-04-24T02:30:05;15.75;;;10.88;;
22660;SDS011;11497;52.222;21.246;2023-04-24T02:32:34;17.23;;;10.77;;
22660;SDS011;11497;52.222;21.246;2023-04-24T02:35:02;16.90;;;11.48;;
22660;SDS011;11497;52.222;21.246;2023-04-24T02:37:31;15.65;;;10.57;;
22660;SDS011;11497;52.222;21.246;2023-04-24T02:39:59;14.65;;;11.15;;
22660;SDS011;11497;52.222;21.246;2023-04-24T02:42:27;16.75;;;11.00;;
22660;SDS011;11497;52.222;21.246;2023-04-24T02:44:56;17.42;;;11.88;;
22660;SDS011;11497;52.222;21.246;2023-04-24T02:47:24;19.35;;;11.95;;
22660;SDS011;11497;52.222;21.246;2023-04-24T02:49:52;20.70;;;10.90;;
22660;SDS011;11497;52.222;21.246;2023-04-24T02:52:20;18.25;;;12.15;;
22660;SDS011;11497;52.222;21.246;2023-04-24T02:54:48;21.05;;;11.35;;
22660;SDS011;11497;52.222;21.246;2023-04-24T02:57:16;19.20;;;11.63;;
22660;SDS011;11497;52.222;21.246;2023-04-24T02:59:44;20.30;;;11.90;;
22660;SDS011;11497;52.222;21.246;2023-04-24T03:02:12;17.35;;;11.88;;
22660;SDS011;11497;52.222;21.246;2023-04-24T03:04:39;17.42;;;11.90;;
22660;SDS011;11497;52.222;21.246;2023-04-24T03:07:10;18.73;;;11.27;;
22660;SDS011;11497;52.222;21.246;2023-04-24T03:09:37;19.85;;;11.68;;
22660;SDS011;11497;52.222;21.246;2023-04-24T03:12:05;20.48;;;12.20;;
22660;SDS011;11497;52.222;21.246;2023-04-24T03:14:34;16.30;;;11.50;;
22660;SDS011;11497;52.222;21.246;2023-04-24T03:17:02;20.08;;;11.55;;
22660;SDS011;11497;52.222;21.246;2023-04-24T03:19:30;20.65;;;11.68;;
22660;SDS011;11497;52.222;21.246;2023-04-24T03:22:03;16.95;;;11.23;;
22660;SDS011;11497;52.222;21.246;2023-04-24T03:24:32;19.38;;;12.23;;
22660;SDS011;11497;52.222;21.246;2023-04-24T03:27:01;22.00;;;12.60;;
22660;SDS011;11497;52.222;21.246;2023-04-24T03:29:47;20.58;;;12.93;;
22660;SDS011;11497;52.222;21.246;2023-04-24T03:32:19;17.92;;;12.43;;
22660;SDS011;11497;52.222;21.246;2023-04-24T03:34:47;18.60;;;11.93;;
22660;SDS011;11497;52.222;21.246;2023-04-24T03:37:16;18.85;;;12.32;;
22660;SDS011;11497;52.222;21.246;2023-04-24T03:39:51;18.05;;;11.45;;
22660;SDS011;11497;52.222;21.246;2023-04-24T03:42:23;20.98;;;11.35;;
22660;SDS011;11497;52.222;21.246;2023-04-24T03:44:54;17.48;;;11.63;;
22660;SDS011;11497;52.222;21.246;2023-04-24T03:47:28;21.70;;;12.73;;
22660;SDS011;11497;52.222;21.246;2023-04-24T03:49:58;18.70;;;12.60;;
22660;SDS011;11497;52.222;21.246;2023-04-24T03:52:27;18.73;;;11.65;;
22660;SDS011;11497;52.222;21.246;2023-04-24T03:54:55;20.10;;;12.20;;
22660;SDS011;11497;52.222;21.246;2023-04-24T03:57:24;16.98;;;11.90;;
22660;SDS011;11497;52.222;21.246;2023-04-24T04:00:04;17.83;;;12.27;;
22660;SDS011;11497;52.222;21.246;2023-04-24T04:02:40;20.63;;;13.00;;
22660;SDS011;11497;52.222;21.246;2023-04-24T04:05:09;17.20;;;12.50;;
22660;SDS011;11497;52.222;21.246;2023-04-24T04:07:37;18.85;;;11.57;;
22660;SDS011;11497;52.222;21.246;2023-04-24T04:10:05;17.40;;;12.75;;
22660;SDS011;11497;52.222;21.246;2023-04-24T04:12:36;15.30;;;11.52;;
22660;SDS011;11497;52.222;21.246;2023-04-24T04:15:05;17.48;;;12.20;;
22660;SDS011;11497;52.222;21.246;2023-04-24T04:17:34;25.70;;;12.63;;
22660;SDS011;11497;52.222;21.246;2023-04-24T04:20:06;20.98;;;11.57;;
22660;SDS011;11497;52.222;21.246;2023-04-24T04:22:38;20.90;;;12.27;;
22660;SDS011;11497;52.222;21.246;2023-04-24T04:25:12;22.45;;;11.63;;
22660;SDS011;11497;52.222;21.246;2023-04-24T04:27:41;17.77;;;11.25;;
22660;SDS011;11497;52.222;21.246;2023-04-24T04:30:11;22.15;;;11.70;;
22660;SDS011;11497;52.222;21.246;2023-04-24T04:32:51;20.92;;;12.30;;
22660;SDS011;11497;52.222;21.246;2023-04-24T04:35:20;19.27;;;11.77;;
22660;SDS011;11497;52.222;21.246;2023-04-24T04:37:50;17.75;;;11.55;;
22660;SDS011;11497;52.222;21.246;2023-04-24T04:40:33;19.23;;;11.63;;
22660;SDS011;11497;52.222;21.246;2023-04-24T04:43:04;24.60;;;12.13;;
22660;SDS011;11497;52.222;21.246;2023-04-24T04:45:41;19.58;;;12.07;;
22660;SDS011;11497;52.222;21.246;2023-04-24T04:48:32;19.63;;;11.20;;
22660;SDS011;11497;52.222;21.246;2023-04-24T04:51:02;18.35;;;11.07;;
22660;SDS011;11497;52.222;21.246;2023-04-24T04:53:30;15.63;;;10.73;;
22660;SDS011;11497;52.222;21.246;2023-04-24T04:55:58;14.80;;;10.98;;
22660;SDS011;11497;52.222;21.246;2023-04-24T04:58:33;17.98;;;10.63;;
22660;SDS011;11497;52.222;21.246;2023-04-24T05:01:02;16.52;;;11.05;;
22660;SDS011;11497;52.222;21.246;2023-04-24T05:03:35;22.57;;;10.97;;
22660;SDS011;11497;52.222;21.246;2023-04-24T05:06:07;15.32;;;10.70;;
22660;SDS011;11497;52.222;21.246;2023-04-24T05:08:38;17.80;;;11.05;;
22660;SDS011;11497;52.222;21.246;2023-04-24T05:11:10;17.00;;;10.77;;
22660;SDS011;11497;52.222;21.246;2023-04-24T05:13:39;18.10;;;10.32;;
22660;SDS011;11497;52.222;21.246;2023-04-24T05:16:16;16.48;;;10.98;;
22660;SDS011;11497;52.222;21.246;2023-04-24T05:18:44;12.95;;;9.73;;
22660;SDS011;11497;52.222;21.246;2023-04-24T05:21:14;16.70;;;10.07;;
22660;SDS011;11497;52.222;21.246;2023-04-24T05:23:46;17.65;;;9.52;;
22660;SDS011;11497;52.222;21.246;2023-04-24T05:26:22;13.48;;;10.00;;
22660;SDS011;11497;52.222;21.246;2023-04-24T05:28:50;19.13;;;9.77;;
22660;SDS011;11497;52.222;21.246;2023-04-24T05:31:18;15.13;;;10.40;;
22660;SDS011;11497;52.222;21.246;2023-04-24T05:33:46;18.70;;;10.40;;
22660;SDS011;11497;52.222;21.246;2023-04-24T05:36:14;15.55;;;10.07;;
22660;SDS011;11497;52.222;21.246;2023-04-24T05:38:42;13.48;;;10.27;;
22660;SDS011;11497;52.222;21.246;2023-04-24T05:41:10;17.30;;;10.75;;
22660;SDS011;11497;52.222;21.246;2023-04-24T05:43:38;14.95;;;9.95;;
22660;SDS011;11497;52.222;21.246;2023-04-24T05:46:06;11.93;;;9.73;;
22660;SDS011;11497;52.222;21.246;2023-04-24T05:48:34;18.00;;;9.82;;
22660;SDS011;11497;52.222;21.246;2023-04-24T05:51:03;16.02;;;10.10;;
22660;SDS011;11497;52.222;21.246;2023-04-24T05:53:31;16.45;;;9.80;;
22660;SDS011;11497;52.222;21.246;2023-04-24T05:55:59;16.00;;;9.95;;
22660;SDS011;11497;52.222;21.246;2023-04-24T05:58:28;19.33;;;10.45;;
22660;SDS011;11497;52.222;21.246;2023-04-24T06:00:55;13.40;;;9.93;;
22660;SDS011;11497;52.222;21.246;2023-04-24T06:03:25;16.20;;;9.88;;
22660;SDS011;11497;52.222;21.246;2023-04-24T06:05:54;14.35;;;10.15;;
22660;SDS011;11497;52.222;21.246;2023-04-24T06:08:23;13.88;;;9.70;;
22660;SDS011;11497;52.222;21.246;2023-04-24T06:10:52;12.38;;;10.27;;
22660;SDS011;11497;52.222;21.246;2023-04-24T06:13:21;26.50;;;10.45;;
22660;SDS011;11497;52.222;21.246;2023-04-24T06:16:15;18.25;;;9.77;;
22660;SDS011;11497;52.222;21.246;2023-04-24T06:18:49;15.30;;;10.00;;
22660;SDS011;11497;52.222;21.246;2023-04-24T06:21:18;18.77;;;9.90;;
22660;SDS011;11497;52.222;21.246;2023-04-24T06:23:46;19.38;;;9.90;;
22660;SDS011;11497;52.222;21.246;2023-04-24T06:26:14;13.80;;;9.73;;
22660;SDS011;11497;52.222;21.246;2023-04-24T06:28:42;16.08;;;9.77;;
22660;SDS011;11497;52.222;21.246;2023-04-24T06:31:10;12.15;;;9.65;;
22660;SDS011;11497;52.222;21.246;2023-04-24T06:33:38;13.18;;;9.90;;
22660;SDS011;11497;52.222;21.246;2023-04-24T06:36:06;15.80;;;10.15;;
22660;SDS011;11497;52.222;21.246;2023-04-24T06:38:34;21.10;;;10.50;;
22660;SDS011;11497;52.222;21.246;2023-04-24T06:41:02;21.50;;;10.75;;
22660;SDS011;11497;52.222;21.246;2023-04-24T06:43:31;21.40;;;10.75;;
22660;SDS011;11497;52.222;21.246;2023-04-24T06:45:59;18.27;;;10.75;;
22660;SDS011;11497;52.222;21.246;2023-04-24T06:48:30;17.70;;;10.63;;
22660;SDS011;11497;52.222;21.246;2023-04-24T06:50:58;18.10;;;11.10;;
22660;SDS011;11497;52.222;21.246;2023-04-24T06:53:26;19.73;;;10.65;;
22660;SDS011;11497;52.222;21.246;2023-04-24T06:55:54;19.90;;;11.30;;
22660;SDS011;11497;52.222;21.246;2023-04-24T06:58:22;18.33;;;10.43;;
22660;SDS011;11497;52.222;21.246;2023-04-24T07:00:50;16.80;;;9.90;;
22660;SDS011;11497;52.222;21.246;2023-04-24T07:03:18;18.90;;;9.93;;
22660;SDS011;11497;52.222;21.246;2023-04-24T07:05:46;17.60;;;9.13;;
22660;SDS011;11497;52.222;21.246;2023-04-24T07:08:16;19.33;;;10.43;;
22660;SDS011;11497;52.222;21.246;2023-04-24T07:10:44;15.65;;;9.70;;
22660;SDS011;11497;52.222;21.246;2023-04-24T07:13:12;14.30;;;9.18;;
22660;SDS011;11497;52.222;21.246;2023-04-24T07:15:40;16.27;;;9.68;;
22660;SDS011;11497;52.222;21.246;2023-04-24T07:18:08;16.58;;;9.50;;
22660;SDS011;11497;52.222;21.246;2023-04-24T07:20:37;13.65;;;8.93;;
22660;SDS011;11497;52.222;21.246;2023-04-24T07:23:05;16.65;;;9.23;;
22660;SDS011;11497;52.222;21.246;2023-04-24T07:25:32;13.43;;;8.50;;
22660;SDS011;11497;52.222;21.246;2023-04-24T07:28:00;15.43;;;8.50;;
22660;SDS011;11497;52.222;21.246;2023-04-24T07:30:28;17.63;;;9.15;;
22660;SDS011;11497;52.222;21.246;2023-04-24T07:32:56;18.17;;;8.55;;
22660;SDS011;11497;52.222;21.246;2023-04-24T07:35:24;12.20;;;8.18;;
22660;SDS011;11497;52.222;21.246;2023-04-24T07:37:53;11.18;;;7.95;;
22660;SDS011;11497;52.222;21.246;2023-04-24T07:40:21;13.90;;;7.75;;
22660;SDS011;11497;52.222;21.246;2023-04-24T07:42:50;14.93;;;7.32;;
22660;SDS011;11497;52.222;21.246;2023-04-24T07:45:17;12.88;;;8.00;;
22660;SDS011;11497;52.222;21.246;2023-04-24T07:47:46;14.18;;;8.13;;
22660;SDS011;11497;52.222;21.246;2023-04-24T07:50:13;10.65;;;7.72;;
22660;SDS011;11497;52.222;21.246;2023-04-24T07:52:41;10.45;;;8.18;;
22660;SDS011;11497;52.222;21.246;2023-04-24T07:55:09;11.65;;;7.68;;
22660;SDS011;11497;52.222;21.246;2023-04-24T07:57:37;14.88;;;7.53;;
22660;SDS011;11497;52.222;21.246;2023-04-24T08:00:05;10.52;;;7.80;;
22660;SDS011;11497;52.222;21.246;2023-04-24T08:02:37;14.98;;;8.13;;
22660;SDS011;11497;52.222;21.246;2023-04-24T08:05:05;16.17;;;7.72;;
22660;SDS011;11497;52.222;21.246;2023-04-24T08:07:34;14.02;;;7.55;;
22660;SDS011;11497;52.222;21.246;2023-04-24T08:10:02;11.15;;;8.13;;
22660;SDS011;11497;52.222;21.246;2023-04-24T08:12:31;12.73;;;7.97;;
22660;SDS011;11497;52.222;21.246;2023-04-24T08:14:58;13.18;;;7.68;;
22660;SDS011;11497;52.222;21.246;2023-04-24T08:17:27;14.07;;;7.35;;
22660;SDS011;11497;52.222;21.246;2023-04-24T08:19:54;13.43;;;7.47;;
22660;SDS011;11497;52.222;21.246;2023-04-24T08:22:28;13.60;;;7.47;;
22660;SDS011;11497;52.222;21.246;2023-04-24T08:24:56;15.02;;;7.15;;
22660;SDS011;11497;52.222;21.246;2023-04-24T08:27:25;12.52;;;7.50;;
22660;SDS011;11497;52.222;21.246;2023-04-24T08:29:54;12.20;;;6.75;;
22660;SDS011;11497;52.222;21.246;2023-04-24T08:32:22;11.55;;;7.47;;
22660;SDS011;11497;52.222;21.246;2023-04-24T08:34:49;11.23;;;7.00;;
22660;SDS011;11497;52.222;21.246;2023-04-24T08:37:19;12.50;;;6.82;;
22660;SDS011;11497;52.222;21.246;2023-04-24T08:39:47;7.85;;;6.80;;
22660;SDS011;11497;52.222;21.246;2023-04-24T08:42:19;11.52;;;6.90;;
22660;SDS011;11497;52.222;21.246;2023-04-24T08:44:48;10.55;;;7.20;;
22660;SDS011;11497;52.222;21.246;2023-04-24T08:47:16;9.27;;;7.28;;
22660;SDS011;11497;52.222;21.246;2023-04-24T08:49:46;9.07;;;6.80;;
22660;SDS011;11497;52.222;21.246;2023-04-24T08:52:16;17.35;;;7.82;;
22660;SDS011;11497;52.222;21.246;2023-04-24T08:54:46;8.10;;;6.68;;
22660;SDS011;11497;52.222;21.246;2023-04-24T08:57:15;12.10;;;7.15;;
22660;SDS011;11497;52.222;21.246;2023-04-24T08:59:44;10.63;;;6.72;;
22660;SDS011;11497;52.222;21.246;2023-04-24T09:02:12;10.63;;;6.85;;
22660;SDS011;11497;52.222;21.246;2023-04-24T09:04:41;11.20;;;7.07;;
22660;SDS011;11497;52.222;21.246;2023-04-24T09:07:11;17.95;;;6.65;;
22660;SDS011;11497;52.222;21.246;2023-04-24T09:09:40;16.15;;;7.50;;
22660;SDS011;11497;52.222;21.246;2023-04-24T09:12:09;14.05;;;7.15;;
22660;SDS011;11497;52.222;21.246;2023-04-24T09:14:38;8.45;;;6.75;;
22660;SDS011;11497;52.222;21.246;2023-04-24T09:17:09;9.77;;;6.82;;
22660;SDS011;11497;52.222;21.246;2023-04-24T09:19:37;13.15;;;6.90;;
22660;SDS011;11497;52.222;21.246;2023-04-24T09:22:06;13.27;;;7.43;;
22660;SDS011;11497;52.222;21.246;2023-04-24T09:24:34;11.00;;;7.95;;
22660;SDS011;11497;52.222;21.246;2023-04-24T09:27:02;16.88;;;7.93;;
22660;SDS011;11497;52.222;21.246;2023-04-24T09:29:31;13.07;;;7.72;;
22660;SDS011;11497;52.222;21.246;2023-04-24T09:31:59;14.18;;;7.25;;
22660;SDS011;11497;52.222;21.246;2023-04-24T09:34:48;8.80;;;7.68;;
22660;SDS011;11497;52.222;21.246;2023-04-24T09:37:28;12.27;;;8.00;;
22660;SDS011;11497;52.222;21.246;2023-04-24T09:42:39;15.70;;;7.55;;
22660;SDS011;11497;52.222;21.246;2023-04-24T09:45:10;14.93;;;7.38;;
22660;SDS011;11497;52.222;21.246;2023-04-24T09:47:41;12.35;;;7.40;;
22660;SDS011;11497;52.222;21.246;2023-04-24T09:50:10;12.93;;;7.90;;
22660;SDS011;11497;52.222;21.246;2023-04-24T09:52:43;12.90;;;7.28;;
22660;SDS011;11497;52.222;21.246;2023-04-24T09:55:31;15.23;;;8.32;;
22660;SDS011;11497;52.222;21.246;2023-04-24T09:58:00;13.32;;;8.23;;
22660;SDS011;11497;52.222;21.246;2023-04-24T10:00:32;13.10;;;7.88;;
22660;SDS011;11497;52.222;21.246;2023-04-24T10:03:01;9.75;;;7.60;;
22660;SDS011;11497;52.222;21.246;2023-04-24T10:05:33;16.35;;;7.95;;
22660;SDS011;11497;52.222;21.246;2023-04-24T10:08:03;17.63;;;8.32;;
22660;SDS011;11497;52.222;21.246;2023-04-24T10:10:38;10.03;;;7.80;;
22660;SDS011;11497;52.222;21.246;2023-04-24T10:13:10;11.75;;;7.60;;
22660;SDS011;11497;52.222;21.246;2023-04-24T10:15:40;9.30;;;7.63;;
22660;SDS011;11497;52.222;21.246;2023-04-24T10:18:08;11.43;;;7.57;;
22660;SDS011;11497;52.222;21.246;2023-04-24T10:20:39;18.02;;;8.13;;
22660;SDS011;11497;52.222;21.246;2023-04-24T10:23:07;11.30;;;7.78;;
22660;SDS011;11497;52.222;21.246;2023-04-24T10:25:37;10.82;;;7.60;;
22660;SDS011;11497;52.222;21.246;2023-04-24T10:28:05;10.48;;;7.40;;
22660;SDS011;11497;52.222;21.246;2023-04-24T10:30:36;11.73;;;7.90;;
22660;SDS011;11497;52.222;21.246;2023-04-24T10:33:06;10.88;;;7.07;;
22660;SDS011;11497;52.222;21.246;2023-04-24T10:35:39;10.10;;;7.30;;
22660;SDS011;11497;52.222;21.246;2023-04-24T10:38:13;13.38;;;8.38;;
22660;SDS011;11497;52.222;21.246;2023-04-24T10:40:45;11.43;;;7.78;;
22660;SDS011;11497;52.222;21.246;2023-04-24T10:43:16;13.25;;;7.65;;
22660;SDS011;11497;52.222;21.246;2023-04-24T10:46:03;11.50;;;8.73;;
22660;SDS011;11497;52.222;21.246;2023-04-24T10:48:33;11.95;;;7.95;;
22660;SDS011;11497;52.222;21.246;2023-04-24T10:51:01;11.07;;;8.13;;
22660;SDS011;11497;52.222;21.246;2023-04-24T10:53:29;12.05;;;8.00;;
22660;SDS011;11497;52.222;21.246;2023-04-24T10:56:04;13.82;;;8.00;;
22660;SDS011;11497;52.222;21.246;2023-04-24T10:58:38;10.05;;;7.85;;
22660;SDS011;11497;52.222;21.246;2023-04-24T11:01:22;10.55;;;7.90;;
22660;SDS011;11497;52.222;21.246;2023-04-24T11:04:01;13.55;;;8.27;;
22660;SDS011;11497;52.222;21.246;2023-04-24T11:06:31;13.48;;;7.93;;
22660;SDS011;11497;52.222;21.246;2023-04-24T11:09:05;12.43;;;8.35;;
22660;SDS011;11497;52.222;21.246;2023-04-24T11:11:35;12.85;;;7.80;;
22660;SDS011;11497;52.222;21.246;2023-04-24T11:14:05;18.17;;;8.02;;
22660;SDS011;11497;52.222;21.246;2023-04-24T11:16:34;13.40;;;7.22;;
22660;SDS011;11497;52.222;21.246;2023-04-24T11:19:06;13.18;;;7.68;;
22660;SDS011;11497;52.222;21.246;2023-04-24T11:21:46;15.40;;;8.45;;
22660;SDS011;11497;52.222;21.246;2023-04-24T11:27:21;11.13;;;8.07;;
22660;SDS011;11497;52.222;21.246;2023-04-24T11:34:54;9.70;;;6.75;;
22660;SDS011;11497;52.222;21.246;2023-04-24T11:37:38;14.55;;;7.25;;
22660;SDS011;11497;52.222;21.246;2023-04-24T11:40:09;10.13;;;7.80;;
22660;SDS011;11497;52.222;21.246;2023-04-24T11:42:41;10.32;;;7.30;;
22660;SDS011;11497;52.222;21.246;2023-04-24T11:45:18;11.15;;;6.88;;
22660;SDS011;11497;52.222;21.246;2023-04-24T11:47:50;10.50;;;7.00;;
22660;SDS011;11497;52.222;21.246;2023-04-24T11:50:21;10.57;;;6.57;;
22660;SDS011;11497;52.222;21.246;2023-04-24T11:52:50;18.20;;;6.60;;
22660;SDS011;11497;52.222;21.246;2023-04-24T11:57:46;8.00;;;5.68;;
22660;SDS011;11497;52.222;21.246;2023-04-24T12:00:17;8.95;;;6.50;;
22660;SDS011;11497;52.222;21.246;2023-04-24T12:02:49;12.32;;;6.20;;
22660;SDS011;11497;52.222;21.246;2023-04-24T12:05:23;6.60;;;5.47;;
22660;SDS011;11497;52.222;21.246;2023-04-24T12:07:54;7.90;;;5.38;;
22660;SDS011;11497;52.222;21.246;2023-04-24T12:10:26;13.25;;;6.00;;
22660;SDS011;11497;52.222;21.246;2023-04-24T12:12:56;16.52;;;5.93;;
22660;SDS011;11497;52.222;21.246;2023-04-24T12:15:25;12.48;;;6.28;;
22660;SDS011;11497;52.222;21.246;2023-04-24T12:17:54;8.00;;;6.38;;
22660;SDS011;11497;52.222;21.246;2023-04-24T12:20:24;13.15;;;6.13;;
22660;SDS011;11497;52.222;21.246;2023-04-24T12:22:57;8.57;;;5.95;;
22660;SDS011;11497;52.222;21.246;2023-04-24T12:30:34;8.88;;;5.75;;
22660;SDS011;11497;52.222;21.246;2023-04-24T12:33:06;7.57;;;5.40;;
22660;SDS011;11497;52.222;21.246;2023-04-24T12:35:34;9.07;;;5.65;;
22660;SDS011;11497;52.222;21.246;2023-04-24T12:38:06;9.43;;;6.07;;
22660;SDS011;11497;52.222;21.246;2023-04-24T12:40:40;7.25;;;5.75;;
22660;SDS011;11497;52.222;21.246;2023-04-24T12:43:13;7.47;;;5.35;;
22660;SDS011;11497;52.222;21.246;2023-04-24T12:45:42;8.90;;;5.60;;
22660;SDS011;11497;52.222;21.246;2023-04-24T12:48:11;8.00;;;5.97;;
22660;SDS011;11497;52.222;21.246;2023-04-24T12:50:41;11.55;;;6.43;;
22660;SDS011;11497;52.222;21.246;2023-04-24T12:53:12;7.95;;;5.93;;
22660;SDS011;11497;52.222;21.246;2023-04-24T12:55:41;6.60;;;5.95;;
22660;SDS011;11497;52.222;21.246;2023-04-24T12:58:09;8.48;;;6.13;;
22660;SDS011;11497;52.222;21.246;2023-04-24T13:00:38;9.52;;;5.43;;
22660;SDS011;11497;52.222;21.246;2023-04-24T13:03:05;12.77;;;5.15;;
22660;SDS011;11497;52.222;21.246;2023-04-24T13:05:34;13.85;;;5.78;;
22660;SDS011;11497;52.222;21.246;2023-04-24T13:08:02;22.90;;;6.28;;
22660;SDS011;11497;52.222;21.246;2023-04-24T13:10:30;20.85;;;6.28;;
22660;SDS011;11497;52.222;21.246;2023-04-24T13:12:57;20.00;;;5.90;;
22660;SDS011;11497;52.222;21.246;2023-04-24T13:15:26;15.52;;;5.55;;
22660;SDS011;11497;52.222;21.246;2023-04-24T13:17:53;18.02;;;5.45;;
22660;SDS011;11497;52.222;21.246;2023-04-24T13:20:22;6.13;;;5.30;;
22660;SDS011;11497;52.222;21.246;2023-04-24T13:22:49;12.88;;;5.40;;
22660;SDS011;11497;52.222;21.246;2023-04-24T13:25:17;11.43;;;5.55;;
22660;SDS011;11497;52.222;21.246;2023-04-24T13:27:47;11.02;;;5.50;;
22660;SDS011;11497;52.222;21.246;2023-04-24T13:30:15;10.57;;;5.60;;
22660;SDS011;11497;52.222;21.246;2023-04-24T13:32:42;8.98;;;5.65;;
22660;SDS011;11497;52.222;21.246;2023-04-24T13:35:11;9.20;;;5.95;;
22660;SDS011;11497;52.222;21.246;2023-04-24T13:37:39;9.38;;;5.82;;
22660;SDS011;11497;52.222;21.246;2023-04-24T13:40:07;8.98;;;5.50;;
22660;SDS011;11497;52.222;21.246;2023-04-24T13:42:35;7.93;;;5.93;;
22660;SDS011;11497;52.222;21.246;2023-04-24T13:45:03;9.07;;;5.75;;
22660;SDS011;11497;52.222;21.246;2023-04-24T13:47:50;6.00;;;5.40;;
22660;SDS011;11497;52.222;21.246;2023-04-24T13:50:20;9.38;;;6.68;;
22660;SDS011;11497;52.222;21.246;2023-04-24T13:52:48;8.25;;;5.90;;
22660;SDS011;11497;52.222;21.246;2023-04-24T13:55:16;9.60;;;5.50;;
22660;SDS011;11497;52.222;21.246;2023-04-24T13:57:44;9.23;;;5.50;;
22660;SDS011;11497;52.222;21.246;2023-04-24T14:00:12;5.15;;;4.65;;
22660;SDS011;11497;52.222;21.246;2023-04-24T14:02:40;7.68;;;4.50;;
22660;SDS011;11497;52.222;21.246;2023-04-24T14:05:08;8.85;;;4.85;;
22660;SDS011;11497;52.222;21.246;2023-04-24T14:07:37;8.50;;;4.88;;
22660;SDS011;11497;52.222;21.246;2023-04-24T14:10:05;4.40;;;3.85;;
22660;SDS011;11497;52.222;21.246;2023-04-24T14:12:33;5.30;;;3.60;;
22660;SDS011;11497;52.222;21.246;2023-04-24T14:15:01;4.10;;;3.63;;
22660;SDS011;11497;52.222;21.246;2023-04-24T14:17:31;7.80;;;3.58;;
22660;SDS011;11497;52.222;21.246;2023-04-24T14:19:59;5.85;;;3.55;;
22660;SDS011;11497;52.222;21.246;2023-04-24T14:22:27;7.78;;;3.53;;
22660;SDS011;11497;52.222;21.246;2023-04-24T14:24:55;8.48;;;3.80;;
22660;SDS011;11497;52.222;21.246;2023-04-24T14:27:22;4.63;;;3.50;;
22660;SDS011;11497;52.222;21.246;2023-04-24T14:29:51;5.55;;;3.70;;
22660;SDS011;11497;52.222;21.246;2023-04-24T14:32:19;7.70;;;3.90;;
22660;SDS011;11497;52.222;21.246;2023-04-24T14:34:47;5.72;;;4.13;;
22660;SDS011;11497;52.222;21.246;2023-04-24T14:37:15;6.57;;;3.75;;
22660;SDS011;11497;52.222;21.246;2023-04-24T14:39:43;4.45;;;3.58;;
22660;SDS011;11497;52.222;21.246;2023-04-24T14:42:21;9.88;;;4.80;;
22660;SDS011;11497;52.222;21.246;2023-04-24T14:44:50;8.18;;;4.32;;
22660;SDS011;11497;52.222;21.246;2023-04-24T14:47:17;6.95;;;4.25;;
22660;SDS011;11497;52.222;21.246;2023-04-24T14:49:48;6.03;;;4.47;;
22660;SDS011;11497;52.222;21.246;2023-04-24T14:52:16;5.20;;;4.55;;